sensor_id;sensor_type;location;lat;lon;timestamp;pressure;altitude;pressure_sealevel;temperature;humidity
28510;BME280;15723;55.684;37.928;2023-03-01T00:00:02;99252.97;;;-3.31;52.76
28510;BME280;15723;55.684;37.928;2023-03-01T00:02:37;99256.66;;;-3.41;52.57
28510;BME280;15723;55.684;37.928;2023-03-01T00:05:04;99261.88;;;-3.33;52.86
28510;BME280;15723;55.684;37.928;2023-03-01T00:07:30;99262.44;;;-3.18;52.09
28510;BME280;15723;55.684;37.928;2023-03-01T00:09:57;99255.94;;;-3.03;52.04
28510;BME280;15723;55.684;37.928;2023-03-01T00:12:23;99264.09;;;-3.12;52.23
28510;BME280;15723;55.684;37.928;2023-03-01T00:14:52;99254.22;;;-3.05;51.88
28510;BME280;15723;55.684;37.928;2023-03-01T00:17:19;99250.69;;;-3.06;52.25
28510;BME280;15723;55.684;37.928;2023-03-01T00:19:45;99258.13;;;-3.23;52.05
28510;BME280;15723;55.684;37.928;2023-03-01T00:22:11;99244.88;;;-3.25;52.17
28510;BME280;15723;55.684;37.928;2023-03-01T00:24:37;99244.03;;;-3.27;52.37
28510;BME280;15723;55.684;37.928;2023-03-01T00:27:03;99249.25;;;-3.22;52.43
28510;BME280;15723;55.684;37.928;2023-03-01T00:29:30;99257.00;;;-3.58;52.67
28510;BME280;15723;55.684;37.928;2023-03-01T00:31:56;99253.28;;;-3.49;52.50
28510;BME280;15723;55.684;37.928;2023-03-01T00:34:22;99240.09;;;-3.52;52.72
28510;BME280;15723;55.684;37.928;2023-03-01T00:36:48;99240.66;;;-3.36;52.54
28510;BME280;15723;55.684;37.928;2023-03-01T00:39:15;99234.66;;;-3.46;52.81
28510;BME280;15723;55.684;37.928;2023-03-01T00:41:42;99240.41;;;-3.69;53.74
28510;BME280;15723;55.684;37.928;2023-03-01T00:44:09;99242.81;;;-3.57;53.33
28510;BME280;15723;55.684;37.928;2023-03-01T00:46:35;99244.41;;;-3.47;53.13
28510;BME280;15723;55.684;37.928;2023-03-01T00:49:02;99241.56;;;-3.37;52.33
28510;BME280;15723;55.684;37.928;2023-03-01T00:51:30;99239.91;;;-3.43;52.79
28510;BME280;15723;55.684;37.928;2023-03-01T00:53:59;99244.22;;;-3.37;52.07
28510;BME280;15723;55.684;37.928;2023-03-01T00:56:26;99237.59;;;-3.61;53.30
28510;BME280;15723;55.684;37.928;2023-03-01T00:58:52;99241.78;;;-3.48;52.78
28510;BME280;15723;55.684;37.928;2023-03-01T01:01:25;99242.38;;;-3.82;53.22
28510;BME280;15723;55.684;37.928;2023-03-01T01:03:57;99247.00;;;-3.93;53.77
28510;BME280;15723;55.684;37.928;2023-03-01T01:06:29;99240.91;;;-3.49;52.48
28510;BME280;15723;55.684;37.928;2023-03-01T01:08:56;99244.59;;;-3.57;52.99
28510;BME280;15723;55.684;37.928;2023-03-01T01:11:25;99239.09;;;-3.96;53.35
28510;BME280;15723;55.684;37.928;2023-03-01T01:13:52;99251.13;;;-3.77;52.78
28510;BME280;15723;55.684;37.928;2023-03-01T01:16:20;99249.47;;;-3.84;53.23
28510;BME280;15723;55.684;37.928;2023-03-01T01:18:49;99242.16;;;-3.68;52.79
28510;BME280;15723;55.684;37.928;2023-03-01T01:21:18;99241.25;;;-3.67;52.38
28510;BME280;15723;55.684;37.928;2023-03-01T01:23:45;99243.69;;;-4.05;53.84
28510;BME280;15723;55.684;37.928;2023-03-01T01:26:23;99233.38;;;-3.73;53.33
28510;BME280;15723;55.684;37.928;2023-03-01T01:28:51;99234.84;;;-3.55;52.74
28510;BME280;15723;55.684;37.928;2023-03-01T01:31:18;99237.38;;;-3.49;52.71
28510;BME280;15723;55.684;37.928;2023-03-01T01:33:45;99236.81;;;-3.66;53.05
28510;BME280;15723;55.684;37.928;2023-03-01T01:36:12;99250.19;;;-3.74;53.24
28510;BME280;15723;55.684;37.928;2023-03-01T01:38:39;99253.28;;;-3.98;53.56
28510;BME280;15723;55.684;37.928;2023-03-01T01:41:06;99240.84;;;-3.95;53.56
28510;BME280;15723;55.684;37.928;2023-03-01T01:43:38;99237.78;;;-3.72;53.66
28510;BME280;15723;55.684;37.928;2023-03-01T01:48:53;99243.50;;;-3.95;54.05
28510;BME280;15723;55.684;37.928;2023-03-01T01:51:25;99236.41;;;-3.94;53.66
28510;BME280;15723;55.684;37.928;2023-03-01T01:53:58;99240.94;;;-4.01;53.83
28510;BME280;15723;55.684;37.928;2023-03-01T01:56:27;99255.66;;;-3.83;53.11
28510;BME280;15723;55.684;37.928;2023-03-01T01:58:55;99255.13;;;-3.53;53.03
28510;BME280;15723;55.684;37.928;2023-03-01T02:01:21;99249.91;;;-4.11;54.34
28510;BME280;15723;55.684;37.928;2023-03-01T02:03:49;99251.28;;;-3.86;54.04
28510;BME280;15723;55.684;37.928;2023-03-01T02:06:26;99245.28;;;-3.97;54.15
28510;BME280;15723;55.684;37.928;2023-03-01T02:09:01;99250.53;;;-3.94;54.11
28510;BME280;15723;55.684;37.928;2023-03-01T02:11:30;99243.19;;;-3.78;53.83
28510;BME280;15723;55.684;37.928;2023-03-01T02:13:57;99239.09;;;-3.96;54.24
28510;BME280;15723;55.684;37.928;2023-03-01T02:16:23;99250.34;;;-3.83;54.46
28510;BME280;15723;55.684;37.928;2023-03-01T02:18:52;99244.38;;;-3.96;54.23
28510;BME280;15723;55.684;37.928;2023-03-01T02:24:39;99248.19;;;-3.60;54.50
28510;BME280;15723;55.684;37.928;2023-03-01T02:27:07;99250.41;;;-3.86;54.19
28510;BME280;15723;55.684;37.928;2023-03-01T02:29:33;99251.78;;;-4.18;55.37
28510;BME280;15723;55.684;37.928;2023-03-01T02:32:02;99255.53;;;-3.75;54.32
28510;BME280;15723;55.684;37.928;2023-03-01T02:34:31;99258.78;;;-4.12;55.19
28510;BME280;15723;55.684;37.928;2023-03-01T02:37:05;99261.22;;;-3.98;54.64
28510;BME280;15723;55.684;37.928;2023-03-01T02:39:48;99259.03;;;-4.27;55.18
28510;BME280;15723;55.684;37.928;2023-03-01T02:42:23;99255.00;;;-3.96;55.00
28510;BME280;15723;55.684;37.928;2023-03-01T02:44:52;99262.56;;;-4.28;55.61
28510;BME280;15723;55.684;37.928;2023-03-01T02:47:19;99261.50;;;-4.17;55.71
28510;BME280;15723;55.684;37.928;2023-03-01T02:49:46;99252.78;;;-4.25;55.77
28510;BME280;15723;55.684;37.928;2023-03-01T02:52:46;99251.03;;;-4.26;55.67
28510;BME280;15723;55.684;37.928;2023-03-01T02:55:18;99256.75;;;-3.95;55.32
28510;BME280;15723;55.684;37.928;2023-03-01T02:57:46;99247.53;;;-4.28;55.39
28510;BME280;15723;55.684;37.928;2023-03-01T03:00:21;99247.81;;;-4.48;56.17
28510;BME280;15723;55.684;37.928;2023-03-01T03:02:52;99250.28;;;-4.32;55.86
28510;BME280;15723;55.684;37.928;2023-03-01T03:05:28;99259.03;;;-4.27;56.03
28510;BME280;15723;55.684;37.928;2023-03-01T03:08:00;99257.13;;;-4.19;55.88
28510;BME280;15723;55.684;37.928;2023-03-01T03:10:32;99252.94;;;-4.34;56.34
28510;BME280;15723;55.684;37.928;2023-03-01T03:13:05;99261.88;;;-4.39;56.28
28510;BME280;15723;55.684;37.928;2023-03-01T03:15:31;99261.00;;;-4.42;56.89
28510;BME280;15723;55.684;37.928;2023-03-01T03:18:04;99270.75;;;-4.44;56.95
28510;BME280;15723;55.684;37.928;2023-03-01T03:20:30;99267.25;;;-4.47;57.45
28510;BME280;15723;55.684;37.928;2023-03-01T03:22:57;99260.50;;;-4.68;57.25
28510;BME280;15723;55.684;37.928;2023-03-01T03:25:28;99261.31;;;-4.63;57.08
28510;BME280;15723;55.684;37.928;2023-03-01T03:27:56;99257.53;;;-4.48;56.96
28510;BME280;15723;55.684;37.928;2023-03-01T03:30:29;99254.88;;;-4.47;56.63
28510;BME280;15723;55.684;37.928;2023-03-01T03:32:57;99263.00;;;-4.59;57.04
28510;BME280;15723;55.684;37.928;2023-03-01T03:37:54;99265.81;;;-4.69;57.63
28510;BME280;15723;55.684;37.928;2023-03-01T03:40:34;99273.41;;;-4.47;57.18
28510;BME280;15723;55.684;37.928;2023-03-01T03:43:02;99267.66;;;-4.75;57.65
28510;BME280;15723;55.684;37.928;2023-03-01T03:45:28;99270.31;;;-4.76;57.47
28510;BME280;15723;55.684;37.928;2023-03-01T03:47:55;99265.00;;;-4.76;57.85
28510;BME280;15723;55.684;37.928;2023-03-01T03:50:21;99281.03;;;-4.88;57.87
28510;BME280;15723;55.684;37.928;2023-03-01T03:52:47;99280.19;;;-4.90;58.33
28510;BME280;15723;55.684;37.928;2023-03-01T03:55:13;99275.94;;;-5.04;58.43
28510;BME280;15723;55.684;37.928;2023-03-01T03:57:41;99283.81;;;-4.99;58.54
28510;BME280;15723;55.684;37.928;2023-03-01T04:00:10;99273.94;;;-4.86;57.69
28510;BME280;15723;55.684;37.928;2023-03-01T04:02:42;99278.22;;;-4.73;57.76
28510;BME280;15723;55.684;37.928;2023-03-01T04:05:10;99275.59;;;-4.76;58.09
28510;BME280;15723;55.684;37.928;2023-03-01T04:07:37;99278.38;;;-4.88;58.38
28510;BME280;15723;55.684;37.928;2023-03-01T04:10:06;99283.56;;;-4.76;58.21
28510;BME280;15723;55.684;37.928;2023-03-01T04:12:33;99280.38;;;-5.06;58.68
28510;BME280;15723;55.684;37.928;2023-03-01T04:15:00;99273.03;;;-4.81;58.44
28510;BME280;15723;55.684;37.928;2023-03-01T04:17:28;99282.97;;;-5.03;58.80
28510;BME280;15723;55.684;37.928;2023-03-01T04:19:55;99288.16;;;-4.93;59.20
28510;BME280;15723;55.684;37.928;2023-03-01T04:22:21;99274.03;;;-4.92;58.80
28510;BME280;15723;55.684;37.928;2023-03-01T04:24:47;99293.47;;;-4.93;58.83
28510;BME280;15723;55.684;37.928;2023-03-01T04:27:14;99288.63;;;-4.59;58.03
28510;BME280;15723;55.684;37.928;2023-03-01T04:29:40;99304.59;;;-4.65;58.27
28510;BME280;15723;55.684;37.928;2023-03-01T04:32:07;99301.75;;;-4.52;58.19
28510;BME280;15723;55.684;37.928;2023-03-01T04:34:34;99299.25;;;-4.62;58.06
28510;BME280;15723;55.684;37.928;2023-03-01T04:37:00;99302.72;;;-4.59;58.32
28510;BME280;15723;55.684;37.928;2023-03-01T04:39:26;99310.13;;;-3.62;56.33
28510;BME280;15723;55.684;37.928;2023-03-01T04:41:52;99298.69;;;-2.30;53.48
28510;BME280;15723;55.684;37.928;2023-03-01T04:44:18;99301.28;;;-2.69;51.92
28510;BME280;15723;55.684;37.928;2023-03-01T04:46:45;99297.66;;;-1.84;51.24
28510;BME280;15723;55.684;37.928;2023-03-01T04:49:11;99299.44;;;-2.25;51.46
28510;BME280;15723;55.684;37.928;2023-03-01T04:51:37;99302.78;;;-2.56;51.96
28510;BME280;15723;55.684;37.928;2023-03-01T04:54:03;99291.91;;;-1.34;50.78
28510;BME280;15723;55.684;37.928;2023-03-01T04:56:34;99297.59;;;-1.83;49.99
28510;BME280;15723;55.684;37.928;2023-03-01T04:59:02;99288.09;;;-1.23;49.72
28510;BME280;15723;55.684;37.928;2023-03-01T05:01:31;99291.03;;;-1.00;50.83
28510;BME280;15723;55.684;37.928;2023-03-01T05:03:57;99294.19;;;-1.20;49.55
28510;BME280;15723;55.684;37.928;2023-03-01T05:06:28;99300.81;;;-0.40;48.61
28510;BME280;15723;55.684;37.928;2023-03-01T05:08:54;99292.31;;;-0.84;48.97
28510;BME280;15723;55.684;37.928;2023-03-01T05:11:21;99298.63;;;-0.55;48.14
28510;BME280;15723;55.684;37.928;2023-03-01T05:13:47;99299.84;;;-0.08;46.95
28510;BME280;15723;55.684;37.928;2023-03-01T05:16:13;99301.19;;;-0.52;47.72
28510;BME280;15723;55.684;37.928;2023-03-01T05:18:40;99299.22;;;-0.77;47.67
28510;BME280;15723;55.684;37.928;2023-03-01T05:21:09;99311.63;;;0.42;46.00
28510;BME280;15723;55.684;37.928;2023-03-01T05:23:38;99311.50;;;0.45;45.10
28510;BME280;15723;55.684;37.928;2023-03-01T05:26:05;99314.38;;;0.66;45.51
28510;BME280;15723;55.684;37.928;2023-03-01T05:28:32;99312.19;;;-0.04;45.73
28510;BME280;15723;55.684;37.928;2023-03-01T05:30:58;99324.69;;;-0.34;46.18
28510;BME280;15723;55.684;37.928;2023-03-01T05:33:26;99311.66;;;1.90;42.56
28510;BME280;15723;55.684;37.928;2023-03-01T05:35:52;99317.69;;;2.40;41.63
28510;BME280;15723;55.684;37.928;2023-03-01T05:38:20;99316.38;;;2.29;41.15
28510;BME280;15723;55.684;37.928;2023-03-01T05:40:48;99317.75;;;4.20;38.53
28510;BME280;15723;55.684;37.928;2023-03-01T05:43:16;99318.34;;;4.63;38.04
28510;BME280;15723;55.684;37.928;2023-03-01T05:45:43;99327.66;;;4.56;36.53
28510;BME280;15723;55.684;37.928;2023-03-01T05:48:10;99311.97;;;6.49;34.27
28510;BME280;15723;55.684;37.928;2023-03-01T05:50:39;99319.13;;;4.48;36.79
28510;BME280;15723;55.684;37.928;2023-03-01T05:55:38;99330.06;;;3.07;38.89
28510;BME280;15723;55.684;37.928;2023-03-01T05:58:08;99324.47;;;2.71;39.65
28510;BME280;15723;55.684;37.928;2023-03-01T06:00:35;99320.63;;;3.39;39.62
28510;BME280;15723;55.684;37.928;2023-03-01T06:03:03;99336.69;;;1.89;41.37
28510;BME280;15723;55.684;37.928;2023-03-01T06:05:30;99336.03;;;1.34;42.96
28510;BME280;15723;55.684;37.928;2023-03-01T06:07:59;99337.41;;;1.69;43.23
28510;BME280;15723;55.684;37.928;2023-03-01T06:10:26;99339.09;;;1.23;42.91
28510;BME280;15723;55.684;37.928;2023-03-01T06:12:52;99342.78;;;1.69;42.91
28510;BME280;15723;55.684;37.928;2023-03-01T06:15:19;99340.63;;;1.31;44.39
28510;BME280;15723;55.684;37.928;2023-03-01T06:17:46;99345.41;;;1.46;43.88
28510;BME280;15723;55.684;37.928;2023-03-01T06:20:18;99351.56;;;0.72;45.35
28510;BME280;15723;55.684;37.928;2023-03-01T06:22:45;99347.28;;;1.19;44.87
28510;BME280;15723;55.684;37.928;2023-03-01T06:25:16;99353.41;;;0.43;46.40
28510;BME280;15723;55.684;37.928;2023-03-01T06:27:43;99346.28;;;0.97;45.26
28510;BME280;15723;55.684;37.928;2023-03-01T06:30:14;99348.72;;;-0.36;47.08
28510;BME280;15723;55.684;37.928;2023-03-01T06:32:41;99352.97;;;-0.01;47.61
28510;BME280;15723;55.684;37.928;2023-03-01T06:35:13;99363.94;;;-0.10;47.38
28510;BME280;15723;55.684;37.928;2023-03-01T06:37:41;99349.03;;;1.20;44.55
28510;BME280;15723;55.684;37.928;2023-03-01T06:40:08;99352.94;;;1.60;43.78
28510;BME280;15723;55.684;37.928;2023-03-01T06:42:40;99369.81;;;0.85;44.99
28510;BME280;15723;55.684;37.928;2023-03-01T06:45:08;99363.09;;;1.25;45.31
28510;BME280;15723;55.684;37.928;2023-03-01T06:47:35;99372.72;;;1.31;44.26
28510;BME280;15723;55.684;37.928;2023-03-01T06:50:02;99369.19;;;1.78;44.21
28510;BME280;15723;55.684;37.928;2023-03-01T06:52:29;99362.31;;;2.18;42.27
28510;BME280;15723;55.684;37.928;2023-03-01T06:54:55;99375.59;;;1.24;43.74
28510;BME280;15723;55.684;37.928;2023-03-01T06:57:22;99366.34;;;1.08;44.50
28510;BME280;15723;55.684;37.928;2023-03-01T06:59:48;99371.72;;;1.33;44.25
28510;BME280;15723;55.684;37.928;2023-03-01T07:02:14;99371.06;;;2.00;43.08
28510;BME280;15723;55.684;37.928;2023-03-01T07:04:41;99372.13;;;1.71;43.31
28510;BME280;15723;55.684;37.928;2023-03-01T07:07:07;99370.38;;;2.40;42.20
28510;BME280;15723;55.684;37.928;2023-03-01T07:09:34;99383.97;;;1.88;42.60
28510;BME280;15723;55.684;37.928;2023-03-01T07:12:00;99384.03;;;2.56;41.67
28510;BME280;15723;55.684;37.928;2023-03-01T07:14:27;99389.66;;;2.71;40.70
28510;BME280;15723;55.684;37.928;2023-03-01T07:16:53;99376.16;;;5.08;37.43
28510;BME280;15723;55.684;37.928;2023-03-01T07:19:21;99385.53;;;3.06;39.22
28510;BME280;15723;55.684;37.928;2023-03-01T07:21:48;99390.31;;;2.33;40.92
28510;BME280;15723;55.684;37.928;2023-03-01T07:24:14;99384.78;;;4.78;37.43
28510;BME280;15723;55.684;37.928;2023-03-01T07:26:43;99386.59;;;5.83;36.12
28510;BME280;15723;55.684;37.928;2023-03-01T07:29:10;99391.97;;;4.96;36.85
28510;BME280;15723;55.684;37.928;2023-03-01T07:31:37;99400.09;;;3.62;38.44
28510;BME280;15723;55.684;37.928;2023-03-01T07:34:03;99385.84;;;8.12;33.42
28510;BME280;15723;55.684;37.928;2023-03-01T07:36:30;99384.97;;;5.46;35.00
28510;BME280;15723;55.684;37.928;2023-03-01T07:38:56;99392.31;;;4.15;38.94
28510;BME280;15723;55.684;37.928;2023-03-01T07:41:23;99383.50;;;4.87;37.20
28510;BME280;15723;55.684;37.928;2023-03-01T07:43:50;99395.81;;;4.55;37.50
28510;BME280;15723;55.684;37.928;2023-03-01T07:46:16;99399.22;;;4.21;38.53
28510;BME280;15723;55.684;37.928;2023-03-01T07:48:43;99394.53;;;4.81;37.90
28510;BME280;15723;55.684;37.928;2023-03-01T07:51:10;99390.84;;;4.64;37.66
28510;BME280;15723;55.684;37.928;2023-03-01T07:53:38;99382.59;;;6.56;35.39
28510;BME280;15723;55.684;37.928;2023-03-01T07:56:11;99379.00;;;8.07;31.16
28510;BME280;15723;55.684;37.928;2023-03-01T07:58:44;99378.50;;;8.14;32.09
28510;BME280;15723;55.684;37.928;2023-03-01T08:01:15;99373.25;;;9.76;29.51
28510;BME280;15723;55.684;37.928;2023-03-01T08:03:42;99384.06;;;8.83;31.28
28510;BME280;15723;55.684;37.928;2023-03-01T08:06:10;99378.88;;;9.73;30.56
28510;BME280;15723;55.684;37.928;2023-03-01T08:08:37;99379.69;;;7.52;31.70
28510;BME280;15723;55.684;37.928;2023-03-01T08:11:04;99382.09;;;7.57;32.44
28510;BME280;15723;55.684;37.928;2023-03-01T08:13:33;99386.00;;;6.44;33.81
28510;BME280;15723;55.684;37.928;2023-03-01T08:16:04;99380.25;;;9.66;30.39
28510;BME280;15723;55.684;37.928;2023-03-01T08:18:31;99376.84;;;9.10;29.63
28510;BME280;15723;55.684;37.928;2023-03-01T08:21:05;99379.09;;;9.70;28.59
28510;BME280;15723;55.684;37.928;2023-03-01T08:23:31;99398.97;;;9.44;30.08
28510;BME280;15723;55.684;37.928;2023-03-01T08:26:30;99392.16;;;8.56;29.67
28510;BME280;15723;55.684;37.928;2023-03-01T08:28:56;99381.81;;;7.31;32.69
28510;BME280;15723;55.684;37.928;2023-03-01T08:31:34;99381.91;;;8.61;30.25
28510;BME280;15723;55.684;37.928;2023-03-01T08:34:03;99386.19;;;7.78;30.94
28510;BME280;15723;55.684;37.928;2023-03-01T08:36:32;99389.75;;;6.08;33.41
28510;BME280;15723;55.684;37.928;2023-03-01T08:38:59;99392.78;;;6.82;33.52
28510;BME280;15723;55.684;37.928;2023-03-01T08:41:25;99399.25;;;7.26;32.98
28510;BME280;15723;55.684;37.928;2023-03-01T08:43:52;99407.91;;;7.01;33.59
28510;BME280;15723;55.684;37.928;2023-03-01T08:46:44;99410.66;;;5.86;34.87
28510;BME280;15723;55.684;37.928;2023-03-01T08:49:18;99427.88;;;5.31;38.47
28510;BME280;15723;55.684;37.928;2023-03-01T08:51:47;99425.38;;;5.10;37.09
28510;BME280;15723;55.684;37.928;2023-03-01T08:54:17;99418.22;;;4.72;38.28
28510;BME280;15723;55.684;37.928;2023-03-01T08:56:45;99418.97;;;4.38;39.40
28510;BME280;15723;55.684;37.928;2023-03-01T08:59:12;99422.97;;;4.49;39.97
28510;BME280;15723;55.684;37.928;2023-03-01T09:01:39;99420.06;;;3.34;41.81
28510;BME280;15723;55.684;37.928;2023-03-01T09:04:06;99417.44;;;3.94;40.70
28510;BME280;15723;55.684;37.928;2023-03-01T09:06:52;99420.19;;;3.31;42.42
28510;BME280;15723;55.684;37.928;2023-03-01T09:09:18;99426.50;;;2.43;43.15
28510;BME280;15723;55.684;37.928;2023-03-01T09:11:45;99426.81;;;2.57;44.01
28510;BME280;15723;55.684;37.928;2023-03-01T09:14:13;99422.28;;;3.65;43.10
28510;BME280;15723;55.684;37.928;2023-03-01T09:16:39;99416.66;;;3.51;43.36
28510;BME280;15723;55.684;37.928;2023-03-01T09:19:06;99433.59;;;3.11;43.58
28510;BME280;15723;55.684;37.928;2023-03-01T09:21:32;99431.00;;;3.70;43.12
28510;BME280;15723;55.684;37.928;2023-03-01T09:23:58;99444.56;;;2.38;44.91
28510;BME280;15723;55.684;37.928;2023-03-01T09:26:25;99443.50;;;1.45;46.60
28510;BME280;15723;55.684;37.928;2023-03-01T09:28:53;99439.69;;;1.52;47.19
28510;BME280;15723;55.684;37.928;2023-03-01T09:31:21;99429.47;;;2.80;45.87
28510;BME280;15723;55.684;37.928;2023-03-01T09:33:49;99428.44;;;1.43;48.43
28510;BME280;15723;55.684;37.928;2023-03-01T09:36:18;99420.50;;;2.13;45.66
28510;BME280;15723;55.684;37.928;2023-03-01T09:38:44;99418.91;;;2.54;45.98
28510;BME280;15723;55.684;37.928;2023-03-01T09:44:02;99433.47;;;1.77;46.00
28510;BME280;15723;55.684;37.928;2023-03-01T09:46:37;99451.75;;;1.64;46.32
28510;BME280;15723;55.684;37.928;2023-03-01T09:49:14;99441.09;;;1.11;46.25
28510;BME280;15723;55.684;37.928;2023-03-01T09:52:03;99429.06;;;0.98;47.65
28510;BME280;15723;55.684;37.928;2023-03-01T09:54:33;99434.47;;;1.48;46.46
28510;BME280;15723;55.684;37.928;2023-03-01T09:58:04;99432.81;;;1.95;45.58
28510;BME280;15723;55.684;37.928;2023-03-01T10:00:15;99436.22;;;2.69;43.93
28510;BME280;15723;55.684;37.928;2023-03-01T10:03:39;99440.44;;;1.81;46.00
28510;BME280;15723;55.684;37.928;2023-03-01T10:10:36;99444.03;;;1.30;46.39
28510;BME280;15723;55.684;37.928;2023-03-01T10:15:54;99444.94;;;2.74;43.50
28510;BME280;15723;55.684;37.928;2023-03-01T10:18:28;99449.13;;;3.65;42.86
28510;BME280;15723;55.684;37.928;2023-03-01T10:20:59;99445.47;;;1.90;43.87
28510;BME280;15723;55.684;37.928;2023-03-01T10:23:27;99438.22;;;3.07;44.17
28510;BME280;15723;55.684;37.928;2023-03-01T10:29:10;99449.06;;;3.04;43.76
28510;BME280;15723;55.684;37.928;2023-03-01T10:31:46;99453.97;;;2.01;45.34
28510;BME280;15723;55.684;37.928;2023-03-01T10:34:22;99462.03;;;2.25;45.57
28510;BME280;15723;55.684;37.928;2023-03-01T10:36:50;99443.34;;;2.00;46.22
28510;BME280;15723;55.684;37.928;2023-03-01T10:39:23;99447.69;;;2.49;45.11
28510;BME280;15723;55.684;37.928;2023-03-01T10:42:22;99457.63;;;2.24;44.80
28510;BME280;15723;55.684;37.928;2023-03-01T10:44:51;99451.16;;;2.74;44.94
28510;BME280;15723;55.684;37.928;2023-03-01T10:47:25;99465.50;;;2.50;44.89
28510;BME280;15723;55.684;37.928;2023-03-01T10:50:05;99461.66;;;3.02;43.55
28510;BME280;15723;55.684;37.928;2023-03-01T10:52:35;99460.91;;;2.54;43.59
28510;BME280;15723;55.684;37.928;2023-03-01T10:57:42;99466.56;;;1.74;44.34
28510;BME280;15723;55.684;37.928;2023-03-01T11:00:18;99464.09;;;1.93;44.43
28510;BME280;15723;55.684;37.928;2023-03-01T11:03:02;99478.84;;;1.80;46.29
28510;BME280;15723;55.684;37.928;2023-03-01T11:05:29;99465.63;;;2.47;44.15
28510;BME280;15723;55.684;37.928;2023-03-01T11:08:00;99465.59;;;2.25;44.00
28510;BME280;15723;55.684;37.928;2023-03-01T11:10:32;99457.75;;;2.19;44.17
28510;BME280;15723;55.684;37.928;2023-03-01T11:15:41;99478.03;;;2.49;44.06
28510;BME280;15723;55.684;37.928;2023-03-01T11:18:22;99465.00;;;2.40;44.48
28510;BME280;15723;55.684;37.928;2023-03-01T11:20:51;99465.69;;;2.22;44.03
28510;BME280;15723;55.684;37.928;2023-03-01T11:23:20;99464.19;;;2.62;43.95
28510;BME280;15723;55.684;37.928;2023-03-01T11:25:55;99464.28;;;1.88;42.64
28510;BME280;15723;55.684;37.928;2023-03-01T11:28:22;99458.47;;;2.71;42.21
28510;BME280;15723;55.684;37.928;2023-03-01T11:30:59;99463.19;;;3.30;42.42
28510;BME280;15723;55.684;37.928;2023-03-01T11:33:54;99465.25;;;3.23;41.62
28510;BME280;15723;55.684;37.928;2023-03-01T11:36:36;99458.22;;;3.21;43.09
28510;BME280;15723;55.684;37.928;2023-03-01T11:39:24;99469.81;;;3.43;42.82
28510;BME280;15723;55.684;37.928;2023-03-01T11:42:11;99463.59;;;2.54;42.22
28510;BME280;15723;55.684;37.928;2023-03-01T11:44:40;99467.00;;;2.80;43.25
28510;BME280;15723;55.684;37.928;2023-03-01T11:58:45;99483.59;;;0.92;45.58
28510;BME280;15723;55.684;37.928;2023-03-01T12:01:23;99481.03;;;1.69;43.98
28510;BME280;15723;55.684;37.928;2023-03-01T12:06:52;99482.88;;;1.67;44.24
28510;BME280;15723;55.684;37.928;2023-03-01T12:17:29;99490.56;;;2.26;43.75
28510;BME280;15723;55.684;37.928;2023-03-01T12:22:52;99500.59;;;1.96;43.71
28510;BME280;15723;55.684;37.928;2023-03-01T12:28:28;99493.25;;;1.51;45.03
28510;BME280;15723;55.684;37.928;2023-03-01T12:31:05;99486.72;;;2.33;43.21
28510;BME280;15723;55.684;37.928;2023-03-01T12:34:01;99487.53;;;2.35;42.98
28510;BME280;15723;55.684;37.928;2023-03-01T12:42:25;99490.16;;;1.88;44.93
28510;BME280;15723;55.684;37.928;2023-03-01T12:50:28;99482.72;;;1.96;44.39
28510;BME280;15723;55.684;37.928;2023-03-01T12:52:58;99481.81;;;1.46;44.23
28510;BME280;15723;55.684;37.928;2023-03-01T13:00:38;99477.50;;;1.93;43.18
28510;BME280;15723;55.684;37.928;2023-03-01T13:11:24;99482.91;;;1.40;43.62
28510;BME280;15723;55.684;37.928;2023-03-01T13:13:50;99480.25;;;1.65;43.53
28510;BME280;15723;55.684;37.928;2023-03-01T13:16:40;99476.56;;;2.17;43.23
28510;BME280;15723;55.684;37.928;2023-03-01T13:19:22;99479.00;;;2.00;43.23
28510;BME280;15723;55.684;37.928;2023-03-01T13:21:51;99471.88;;;2.24;42.56
28510;BME280;15723;55.684;37.928;2023-03-01T13:24:26;99472.38;;;1.85;42.01
28510;BME280;15723;55.684;37.928;2023-03-01T13:30:12;99471.97;;;1.73;42.68
28510;BME280;15723;55.684;37.928;2023-03-01T13:32:37;99461.84;;;0.77;45.20
28510;BME280;15723;55.684;37.928;2023-03-01T13:37:45;99454.28;;;1.42;44.18
28510;BME280;15723;55.684;37.928;2023-03-01T13:42:55;99453.03;;;1.54;43.87
28510;BME280;15723;55.684;37.928;2023-03-01T13:50:43;99464.88;;;1.97;42.69
28510;BME280;15723;55.684;37.928;2023-03-01T13:53:16;99468.31;;;2.00;43.67
28510;BME280;15723;55.684;37.928;2023-03-01T13:55:49;99465.69;;;1.99;43.68
28510;BME280;15723;55.684;37.928;2023-03-01T14:00:47;99462.75;;;1.30;43.71
28510;BME280;15723;55.684;37.928;2023-03-01T14:03:15;99462.88;;;1.77;42.83
28510;BME280;15723;55.684;37.928;2023-03-01T14:05:44;99466.97;;;1.37;44.54
28510;BME280;15723;55.684;37.928;2023-03-01T14:08:26;99470.66;;;1.60;44.53
28510;BME280;15723;55.684;37.928;2023-03-01T14:11:26;99468.94;;;-0.12;46.87
28510;BME280;15723;55.684;37.928;2023-03-01T14:14:28;99460.63;;;0.29;47.35
28510;BME280;15723;55.684;37.928;2023-03-01T14:19:47;99464.81;;;-0.56;49.09
28510;BME280;15723;55.684;37.928;2023-03-01T14:22:28;99446.03;;;0.12;47.96
28510;BME280;15723;55.684;37.928;2023-03-01T14:25:16;99453.59;;;-0.35;48.73
28510;BME280;15723;55.684;37.928;2023-03-01T14:27:43;99455.75;;;-0.17;48.80
28510;BME280;15723;55.684;37.928;2023-03-01T14:30:24;99454.38;;;-0.01;49.25
28510;BME280;15723;55.684;37.928;2023-03-01T14:32:56;99464.63;;;-0.83;50.51
28510;BME280;15723;55.684;37.928;2023-03-01T14:35:32;99454.16;;;-0.56;49.51
28510;BME280;15723;55.684;37.928;2023-03-01T14:37:59;99456.16;;;-0.99;51.68
28510;BME280;15723;55.684;37.928;2023-03-01T14:40:28;99466.72;;;-1.33;51.19
28510;BME280;15723;55.684;37.928;2023-03-01T14:42:57;99458.38;;;-0.82;51.65
28510;BME280;15723;55.684;37.928;2023-03-01T14:45:27;99468.78;;;-1.07;52.91
28510;BME280;15723;55.684;37.928;2023-03-01T14:47:55;99458.84;;;-1.00;52.35
28510;BME280;15723;55.684;37.928;2023-03-01T14:50:30;99463.97;;;-0.92;49.86
28510;BME280;15723;55.684;37.928;2023-03-01T14:53:01;99458.28;;;-0.79;50.13